Time;durP1;ratioP1;P1;durP2;ratioP2;P2;SDS_P1;SDS_P2;PMS_P1;PMS_P2;Temp;Humidity;BMP_temperature;BMP_pressure;BME280_temperature;BME280_humidity;BME280_pressure;Samples;Min_cycle;Max_cycle;Signal;HPM_P1;HPM_P2
2023/02/23 00:00:49;;;;;;;3.40;3.10;;;18.30;34.50;;;;;;5054527;28;20677;-85
2023/02/23 00:03:18;;;;;;;4.72;3.45;;;18.30;34.50;;;;;;5067409;28;20178;-86
2023/02/23 00:05:46;;;;;;;5.18;3.33;;;18.30;34.60;;;;;;5067988;28;20595;-86
2023/02/23 00:08:22;;;;;;;5.35;3.30;;;18.30;34.60;;;;;;5044431;28;20179;-86
2023/02/23 00:10:48;;;;;;;3.50;3.15;;;18.20;34.60;;;;;;5016917;28;20219;-86
2023/02/23 00:13:16;;;;;;;4.10;3.03;;;18.20;34.70;;;;;;5024718;28;20224;-86
2023/02/23 00:15:45;;;;;;;4.95;3.60;;;18.20;34.80;;;;;;5024418;28;20210;-86
2023/02/23 00:18:13;;;;;;;3.75;3.30;;;18.20;34.80;;;;;;5011656;28;20258;-86
2023/02/23 00:20:44;;;;;;;4.18;3.20;;;18.20;34.80;;;;;;5027507;28;20183;-86
2023/02/23 00:23:29;;;;;;;3.65;3.15;;;18.20;34.80;;;;;;5023299;28;20180;-86
2023/02/23 00:26:05;;;;;;;4.40;3.50;;;18.20;34.90;;;;;;5027723;28;20190;-86
2023/02/23 00:28:31;;;;;;;4.45;3.30;;;18.20;34.90;;;;;;5021923;28;20186;-85
2023/02/23 00:31:01;;;;;;;3.85;3.20;;;18.20;34.90;;;;;;5024778;28;20208;-85
2023/02/23 00:33:33;;;;;;;6.00;3.40;;;18.20;35.00;;;;;;5027702;28;20614;-86
2023/02/23 00:36:12;;;;;;;3.97;3.42;;;18.20;35.00;;;;;;5043813;28;20199;-86
2023/02/23 00:38:40;;;;;;;4.22;3.20;;;18.20;35.00;;;;;;4987442;28;20180;-86
2023/02/23 00:41:18;;;;;;;4.95;3.30;;;18.20;35.10;;;;;;4964414;29;20207;-86
2023/02/23 00:43:47;;;;;;;3.70;3.10;;;18.20;35.10;;;;;;4984016;28;20229;-85
2023/02/23 00:46:23;;;;;;;4.03;3.40;;;18.10;35.10;;;;;;4952443;29;20177;-86
2023/02/23 00:48:59;;;;;;;4.75;3.50;;;18.10;35.10;;;;;;4968622;29;20260;-86
2023/02/23 00:51:34;;;;;;;3.95;3.10;;;18.10;35.20;;;;;;4967643;29;20189;-85
2023/02/23 00:54:03;;;;;;;4.72;3.10;;;18.10;35.10;;;;;;4921616;29;20202;-86
2023/02/23 00:56:42;;;;;;;4.90;3.38;;;18.10;35.20;;;;;;4915093;29;20217;-86
2023/02/23 00:59:08;;;;;;;5.95;3.30;;;18.10;35.20;;;;;;4908501;29;20604;-85
2023/02/23 01:01:40;;;;;;;3.80;3.20;;;18.10;35.20;;;;;;4934277;28;20192;-87
2023/02/23 01:04:07;;;;;;;5.80;3.33;;;18.10;35.30;;;;;;4925045;29;20260;-85
2023/02/23 01:06:36;;;;;;;4.05;3.17;;;18.10;35.30;;;;;;4901479;29;20600;-86
2023/02/23 01:09:07;;;;;;;4.10;3.33;;;18.10;35.30;;;;;;4893481;29;20659;-85
2023/02/23 01:11:40;;;;;;;4.30;3.33;;;18.10;35.30;;;;;;4898305;29;20187;-85
2023/02/23 01:14:07;;;;;;;4.93;3.10;;;18.10;35.30;;;;;;4949129;29;20594;-86
2023/02/23 01:16:37;;;;;;;4.40;3.40;;;18.10;35.30;;;;;;4951833;29;20733;-86
2023/02/23 01:19:06;;;;;;;4.05;3.20;;;18.10;35.30;;;;;;4967854;29;20186;-85
2023/02/23 01:21:40;;;;;;;4.35;3.40;;;18.10;35.40;;;;;;4971274;28;20192;-86
2023/02/23 01:24:12;;;;;;;4.95;3.22;;;18.10;35.40;;;;;;4992990;28;20214;-86
2023/02/23 01:26:48;;;;;;;3.40;3.00;;;18.10;35.40;;;;;;5010492;28;20183;-85
2023/02/23 01:29:22;;;;;;;3.92;3.40;;;18.10;35.40;;;;;;5010658;28;20233;-85
2023/02/23 01:31:51;;;;;;;3.30;2.78;;;18.10;35.40;;;;;;5009556;28;20179;-86
2023/02/23 01:34:21;;;;;;;3.83;3.15;;;18.10;36.20;;;;;;5032599;28;20179;-86
2023/02/23 01:36:47;;;;;;;3.65;3.03;;;18.10;35.50;;;;;;5085962;28;20185;-86
2023/02/23 01:39:24;;;;;;;3.72;3.33;;;18.10;35.50;;;;;;5086291;28;20158;-86
2023/02/23 01:41:53;;;;;;;3.63;3.10;;;18.00;35.50;;;;;;5086386;28;20181;-85
2023/02/23 01:44:58;;;;;;;3.40;3.00;;;18.00;35.60;;;;;;5116891;28;20219;-86
2023/02/23 01:47:25;;;;;;;3.55;3.03;;;18.00;35.70;;;;;;5122733;27;20231;-86
2023/02/23 01:49:54;;;;;;;3.72;3.22;;;18.00;35.70;;;;;;5110134;28;20742;-86
2023/02/23 01:52:26;;;;;;;4.10;3.10;;;18.00;35.70;;;;;;5127342;28;20258;-85
2023/02/23 01:54:55;;;;;;;4.13;3.10;;;18.00;35.70;;;;;;5092529;28;20184;-85
2023/02/23 01:57:25;;;;;;;4.50;3.30;;;18.00;35.70;;;;;;5092155;28;20172;-86
2023/02/23 01:59:51;;;;;;;3.70;3.20;;;18.00;35.70;;;;;;5109442;28;20193;-86
2023/02/23 02:02:20;;;;;;;5.05;3.10;;;18.00;35.80;;;;;;5109465;28;20164;-86
2023/02/23 02:04:50;;;;;;;5.13;3.17;;;18.00;35.90;;;;;;5072424;28;20221;-86
2023/02/23 02:07:19;;;;;;;4.82;3.17;;;18.00;35.80;;;;;;5074217;28;20183;-86
2023/02/23 02:10:38;;;;;;;4.38;3.30;;;18.00;35.90;;;;;;5072452;28;20177;-86
2023/02/23 02:12:53;;;;;;;3.70;3.20;;;18.00;35.90;;;;;;5077889;28;20164;-86
2023/02/23 02:15:28;;;;;;;3.45;2.75;;;18.00;35.90;;;;;;5065140;28;20185;-86
2023/02/23 02:18:17;;;;;;;5.05;3.22;;;17.90;35.90;;;;;;5084105;28;20203;-85
2023/02/23 02:21:10;;;;;;;4.57;2.85;;;18.00;36.00;;;;;;5021189;28;20182;-85
2023/02/23 02:24:12;;;;;;;4.10;3.20;;;17.90;36.00;;;;;;5048444;28;20197;-85
2023/02/23 02:26:53;;;;;;;3.70;3.20;;;17.90;36.00;;;;;;5065577;28;20178;-86
2023/02/23 02:29:43;;;;;;;4.00;3.38;;;17.90;36.00;;;;;;5044737;28;20210;-85
2023/02/23 02:32:42;;;;;;;3.65;3.20;;;17.90;36.00;;;;;;5030141;28;20669;-86
2023/02/23 02:35:33;;;;;;;3.95;3.20;;;17.90;36.00;;;;;;5023148;28;20187;-86
2023/02/23 02:38:33;;;;;;;3.33;2.90;;;17.90;36.10;;;;;;5008562;28;20291;-85
2023/02/23 02:41:03;;;;;;;3.83;3.08;;;17.90;36.10;;;;;;5041613;28;20252;-86
2023/02/23 02:43:45;;;;;;;3.97;3.30;;;17.90;36.10;;;;;;5032899;28;20733;-86
2023/02/23 02:46:17;;;;;;;4.63;3.10;;;18.00;36.20;;;;;;5014014;28;20179;-85
2023/02/23 02:48:56;;;;;;;4.45;3.08;;;17.90;36.20;;;;;;4992801;28;20297;-85
2023/02/23 02:51:56;;;;;;;3.30;3.00;;;17.90;36.20;;;;;;5008654;28;20189;-86
2023/02/23 02:54:42;;;;;;;5.30;3.17;;;17.90;36.30;;;;;;5025439;28;20673;-86
2023/02/23 02:57:08;;;;;;;3.25;2.95;;;17.90;36.30;;;;;;5025242;28;20187;-85
2023/02/23 04:18:28;;;;;;;3.60;3.00;;;17.70;36.80;;;;;;5004335;28;20176;-86
2023/02/23 04:20:58;;;;;;;3.53;3.10;;;17.70;36.80;;;;;;5019220;28;20193;-86
2023/02/23 04:23:35;;;;;;;3.22;2.80;;;17.80;36.80;;;;;;5027553;28;20197;-86
2023/02/23 04:26:04;;;;;;;3.85;3.08;;;17.80;36.80;;;;;;5028417;28;20177;-86
2023/02/23 04:28:29;;;;;;;3.33;2.80;;;17.80;36.80;;;;;;5026608;28;20190;-85
2023/02/23 04:31:01;;;;;;;4.97;3.33;;;17.80;36.80;;;;;;5027663;28;20183;-86
2023/02/23 04:33:28;;;;;;;4.45;2.90;;;17.70;36.90;;;;;;5028206;28;20182;-86
2023/02/23 04:35:58;;;;;;;3.85;2.95;;;17.80;36.80;;;;;;5026731;28;20159;-86
2023/02/23 04:38:25;;;;;;;3.42;3.05;;;17.80;36.90;;;;;;5010808;28;20220;-86
2023/02/23 04:40:55;;;;;;;3.72;2.92;;;17.80;36.90;;;;;;4987926;28;20227;-86
2023/02/23 04:43:21;;;;;;;3.22;2.90;;;17.80;36.90;;;;;;4997014;28;20254;-86
2023/02/23 04:45:50;;;;;;;4.85;3.20;;;17.80;36.90;;;;;;5024492;28;20184;-85
2023/02/23 04:48:25;;;;;;;3.45;2.90;;;17.80;36.90;;;;;;5025479;28;20713;-86
2023/02/23 04:50:52;;;;;;;4.32;3.20;;;17.80;36.90;;;;;;5011267;28;20155;-84
2023/02/23 04:53:30;;;;;;;3.30;2.80;;;17.70;36.90;;;;;;5011096;28;20290;-86
2023/02/23 04:55:59;;;;;;;3.85;3.10;;;17.70;37.00;;;;;;5027585;28;20189;-86
2023/02/23 04:58:25;;;;;;;3.78;3.20;;;17.80;37.00;;;;;;5015933;28;20253;-85
2023/02/23 05:00:52;;;;;;;3.42;3.00;;;17.70;37.00;;;;;;5046730;28;20186;-85
2023/02/23 05:03:24;;;;;;;3.38;2.85;;;17.70;37.00;;;;;;5043089;28;20183;-85
2023/02/23 05:05:54;;;;;;;3.53;2.80;;;17.80;37.00;;;;;;5026343;28;20215;-85
2023/02/23 05:08:23;;;;;;;3.60;3.10;;;17.80;37.00;;;;;;5042692;28;20586;-86
2023/02/23 05:10:54;;;;;;;4.57;3.22;;;17.70;37.00;;;;;;5007220;28;20184;-86
2023/02/23 05:13:21;;;;;;;3.40;3.10;;;17.70;37.10;;;;;;4987297;28;20294;-85
2023/02/23 05:15:59;;;;;;;4.93;3.00;;;17.70;37.10;;;;;;4986860;28;20189;-85
2023/02/23 05:18:25;;;;;;;3.75;3.13;;;17.70;37.10;;;;;;5002675;28;20172;-86
2023/02/23 05:20:52;;;;;;;3.40;2.90;;;17.70;37.20;;;;;;4984051;28;20189;-85
2023/02/23 05:23:23;;;;;;;3.45;3.10;;;17.70;37.30;;;;;;4984230;28;20200;-85
2023/02/23 05:25:52;;;;;;;3.38;2.80;;;17.70;37.30;;;;;;4989949;28;20263;-85
2023/02/23 05:28:23;;;;;;;3.70;3.03;;;17.70;37.30;;;;;;5041662;28;20187;-85
2023/02/23 05:30:49;;;;;;;4.55;3.00;;;17.80;37.30;;;;;;5009434;28;20203;-85
2023/02/23 05:33:22;;;;;;;4.03;2.90;;;17.70;37.30;;;;;;5025917;28;20183;-85
2023/02/23 05:35:57;;;;;;;4.45;3.00;;;17.70;37.20;;;;;;5009253;28;20322;-85
2023/02/23 05:38:38;;;;;;;3.50;3.08;;;17.70;37.20;;;;;;5007645;28;20182;-85
2023/02/23 05:41:14;;;;;;;3.42;2.67;;;17.70;37.30;;;;;;5042414;28;20276;-85
2023/02/23 05:43:43;;;;;;;3.90;3.13;;;17.80;37.30;;;;;;5054158;28;20221;-86
2023/02/23 05:46:11;;;;;;;3.85;2.90;;;17.70;37.30;;;;;;5029483;28;20183;-85
2023/02/23 05:48:37;;;;;;;3.15;2.85;;;17.70;37.30;;;;;;5005016;28;20188;-85
2023/02/23 05:51:07;;;;;;;3.72;3.00;;;17.70;37.30;;;;;;4990290;28;20238;-85
2023/02/23 05:53:35;;;;;;;3.28;2.80;;;17.60;37.30;;;;;;5022674;28;20185;-85
2023/02/23 05:56:19;;;;;;;4.28;3.00;;;17.70;37.40;;;;;;5006470;28;20243;-85
2023/02/23 05:58:47;;;;;;;3.45;2.70;;;17.70;37.30;;;;;;5017682;28;20190;-85
2023/02/23 06:01:17;;;;;;;3.85;2.88;;;17.70;37.30;;;;;;5012801;28;20286;-85
2023/02/23 06:03:45;;;;;;;3.72;3.15;;;17.70;37.30;;;;;;5013013;28;20229;-85
2023/02/23 06:06:13;;;;;;;3.97;3.10;;;17.70;37.30;;;;;;5012283;28;20174;-85
2023/02/23 06:08:43;;;;;;;3.60;2.90;;;17.70;37.30;;;;;;4996704;28;20683;-85
2023/02/23 06:11:09;;;;;;;3.22;2.92;;;17.70;37.40;;;;;;5005386;28;20187;-85
2023/02/23 06:13:51;;;;;;;3.53;3.15;;;17.60;37.40;;;;;;5089455;28;20183;-85
2023/02/23 06:16:19;;;;;;;3.42;2.72;;;17.70;37.50;;;;;;5089211;28;20179;-85
2023/02/23 06:18:51;;;;;;;3.85;2.97;;;17.70;37.50;;;;;;5055511;28;20260;-85
2023/02/23 06:21:17;;;;;;;3.30;2.97;;;17.70;37.50;;;;;;5044825;28;20182;-85
2023/02/23 06:23:46;;;;;;;4.22;2.92;;;17.70;37.50;;;;;;5045394;28;20189;-85
2023/02/23 06:26:12;;;;;;;4.30;3.45;;;17.70;37.60;;;;;;5028313;28;20182;-85
2023/02/23 06:28:40;;;;;;;3.10;2.80;;;17.70;37.70;;;;;;5028044;28;20688;-86
2023/02/23 06:31:08;;;;;;;3.85;3.03;;;17.60;37.60;;;;;;5029395;28;20183;-85
2023/02/23 06:33:36;;;;;;;3.85;2.85;;;17.60;37.60;;;;;;5031924;28;20783;-85
2023/02/23 06:36:07;;;;;;;3.22;2.65;;;17.60;37.70;;;;;;5048359;28;20223;-85
2023/02/23 06:38:36;;;;;;;3.75;2.97;;;17.60;37.60;;;;;;5051634;28;20177;-85
2023/02/23 06:41:09;;;;;;;3.58;2.97;;;17.70;37.70;;;;;;5068442;28;20177;-85
2023/02/23 06:43:37;;;;;;;3.22;2.70;;;17.60;37.70;;;;;;5067799;28;20213;-86
2023/02/23 06:46:05;;;;;;;4.43;2.80;;;17.60;37.80;;;;;;5080165;28;20181;-84
2023/02/23 06:48:35;;;;;;;3.42;2.83;;;17.60;37.80;;;;;;5055462;28;20172;-85
2023/02/23 06:51:04;;;;;;;4.18;2.90;;;17.60;37.80;;;;;;5071077;28;20240;-85
2023/02/23 06:53:35;;;;;;;3.38;2.78;;;17.60;37.60;;;;;;5047501;28;20185;-85
2023/02/23 06:56:05;;;;;;;3.70;3.00;;;17.70;37.70;;;;;;5063902;28;20304;-85
2023/02/23 06:58:34;;;;;;;3.22;2.92;;;17.70;37.60;;;;;;5064829;28;20174;-85
2023/02/23 07:01:02;;;;;;;3.47;2.75;;;17.70;37.60;;;;;;5024546;28;20233;-85
2023/02/23 07:03:29;;;;;;;4.47;3.05;;;17.70;37.60;;;;;;5024728;28;20175;-85
2023/02/23 07:05:55;;;;;;;3.30;2.90;;;17.60;37.70;;;;;;5001418;28;20195;-85
2023/02/23 07:08:22;;;;;;;3.13;2.72;;;17.60;37.60;;;;;;4985895;28;20212;-85
2023/02/23 07:10:49;;;;;;;3.90;2.88;;;17.70;37.80;;;;;;4989517;28;20701;-85
2023/02/23 07:13:24;;;;;;;3.63;2.80;;;17.70;37.90;;;;;;4988691;28;20194;-85
2023/02/23 07:15:57;;;;;;;3.10;2.70;;;17.70;37.90;;;;;;4988685;28;20183;-86
2023/02/23 07:18:28;;;;;;;3.38;2.80;;;17.70;37.90;;;;;;5008790;28;20290;-85
2023/02/23 07:20:57;;;;;;;3.10;2.70;;;17.70;37.90;;;;;;5008418;28;20274;-85
2023/02/23 07:23:27;;;;;;;5.03;3.00;;;17.60;37.80;;;;;;5005865;28;20226;-85
2023/02/23 07:25:55;;;;;;;4.25;3.03;;;17.70;37.90;;;;;;5020575;28;20690;-86
2023/02/23 07:28:22;;;;;;;4.80;2.90;;;17.70;37.80;;;;;;5004636;28;20195;-85
2023/02/23 07:30:48;;;;;;;3.40;2.90;;;17.70;38.50;;;;;;5020931;28;20203;-85
2023/02/23 07:33:16;;;;;;;3.47;2.75;;;17.70;37.80;;;;;;5040638;28;20229;-85
2023/02/23 07:35:44;;;;;;;3.22;2.92;;;17.70;37.70;;;;;;5021046;28;20188;-85
2023/02/23 07:38:14;;;;;;;3.38;2.80;;;17.80;38.30;;;;;;5040950;28;20183;-85
2023/02/23 07:40:49;;;;;;;3.13;2.83;;;17.90;37.60;;;;;;5023535;28;20183;-86
2023/02/23 07:43:15;;;;;;;3.78;2.85;;;17.90;37.50;;;;;;5023718;28;20230;-85
2023/02/23 07:45:43;;;;;;;3.17;2.55;;;18.00;37.40;;;;;;5047613;28;20247;-85
2023/02/23 07:48:12;;;;;;;2.97;2.67;;;17.90;37.20;;;;;;5017261;28;20181;-86
2023/02/23 07:50:45;;;;;;;2.53;2.25;;;18.00;37.30;;;;;;5026857;28;20189;-85
2023/02/23 07:53:14;;;;;;;2.90;2.60;;;18.00;37.30;;;;;;5019474;28;20158;-85
2023/02/23 07:55:40;;;;;;;2.67;2.42;;;18.10;37.20;;;;;;5031128;28;20194;-84
2023/02/23 07:58:09;;;;;;;2.85;2.50;;;18.10;37.20;;;;;;5028360;28;20191;-85
2023/02/23 08:00:38;;;;;;;3.83;2.55;;;18.10;37.20;;;;;;5011574;28;20183;-85
2023/02/23 08:03:05;;;;;;;3.15;2.55;;;18.10;37.20;;;;;;4988445;28;20271;-86
2023/02/23 08:05:33;;;;;;;2.85;2.47;;;18.20;37.20;;;;;;4972488;28;20207;-85
2023/02/23 08:07:59;;;;;;;2.72;2.40;;;18.20;37.30;;;;;;5011000;28;20178;-85
2023/02/23 08:10:27;;;;;;;3.38;2.15;;;18.20;37.40;;;;;;4994099;28;20175;-85
2023/02/23 08:12:56;;;;;;;3.05;2.35;;;18.20;37.60;;;;;;5013600;28;20198;-85
2023/02/23 08:15:26;;;;;;;3.00;2.30;;;18.20;37.20;;;;;;4999214;28;20179;-85
2023/02/23 08:17:52;;;;;;;2.92;2.60;;;18.30;37.30;;;;;;5014352;28;20189;-85
2023/02/23 08:20:20;;;;;;;2.75;2.47;;;18.20;37.10;;;;;;4998800;28;20174;-85
2023/02/23 08:22:46;;;;;;;2.50;2.22;;;18.30;37.20;;;;;;4998779;28;20249;-84
2023/02/23 08:25:12;;;;;;;3.75;2.40;;;18.30;37.50;;;;;;4997625;28;20248;-84
2023/02/23 08:27:38;;;;;;;2.75;2.40;;;18.30;37.50;;;;;;5030315;28;20664;-84
2023/02/23 08:30:04;;;;;;;3.60;2.58;;;18.20;37.20;;;;;;5050692;28;20204;-83
2023/02/23 08:32:34;;;;;;;2.50;2.28;;;18.20;37.40;;;;;;5069676;28;20161;-84
2023/02/23 08:35:01;;;;;;;2.83;2.17;;;18.20;37.40;;;;;;5104464;27;20183;-84
2023/02/23 08:37:30;;;;;;;4.25;2.20;;;18.20;37.50;;;;;;5113106;27;20183;-85
2023/02/23 08:39:59;;;;;;;2.53;2.00;;;18.30;37.50;;;;;;5112724;27;20166;-84
2023/02/23 08:42:25;;;;;;;3.75;2.08;;;18.40;37.40;;;;;;5095190;27;20633;-85
2023/02/23 08:44:52;;;;;;;5.13;1.85;;;18.40;37.40;;;;;;5111528;27;20588;-84
2023/02/23 08:47:20;;;;;;;4.05;2.28;;;18.30;37.30;;;;;;5095290;27;20163;-84
2023/02/23 08:49:47;;;;;;;3.22;2.38;;;18.30;37.40;;;;;;5114559;27;20156;-83
2023/02/23 08:52:12;;;;;;;2.95;2.25;;;18.30;37.60;;;;;;5112649;27;20165;-84
2023/02/23 08:54:38;;;;;;;3.78;2.15;;;18.20;37.80;;;;;;5096189;27;20168;-84
2023/02/23 08:57:04;;;;;;;4.15;2.25;;;18.20;37.80;;;;;;5114576;27;20160;-86
2023/02/23 08:59:30;;;;;;;3.30;1.85;;;18.30;37.70;;;;;;5114596;27;20208;-84
2023/02/23 09:01:56;;;;;;;3.75;2.22;;;18.40;37.70;;;;;;5097835;27;20239;-84
2023/02/23 09:04:23;;;;;;;2.58;2.05;;;18.50;37.50;;;;;;5097658;27;20195;-84
2023/02/23 09:06:49;;;;;;;2.30;1.83;;;18.50;37.50;;;;;;5114914;27;20155;-85
2023/02/23 09:09:15;;;;;;;7.53;2.17;;;18.50;37.50;;;;;;5068915;28;20239;-84
2023/02/23 09:11:43;;;;;;;3.00;1.92;;;18.60;37.50;;;;;;5051013;28;20182;-84
2023/02/23 09:14:09;;;;;;;3.47;2.13;;;18.40;37.60;;;;;;5066359;28;20177;-85
2023/02/23 09:16:37;;;;;;;3.67;2.10;;;18.50;37.70;;;;;;5052768;28;20200;-84
2023/02/23 09:19:06;;;;;;;3.00;2.10;;;18.50;37.70;;;;;;5034197;28;20193;-84
2023/02/23 09:21:33;;;;;;;2.40;1.80;;;18.60;37.60;;;;;;5067651;28;20558;-83
2023/02/23 09:24:01;;;;;;;3.35;2.00;;;18.50;37.70;;;;;;5064819;28;20216;-83
2023/02/23 09:26:28;;;;;;;2.47;2.15;;;18.60;37.80;;;;;;5051294;28;20622;-83
2023/02/23 09:28:55;;;;;;;6.90;2.22;;;18.50;38.00;;;;;;5035784;28;20250;-85
2023/02/23 09:31:21;;;;;;;4.22;1.75;;;18.50;38.10;;;;;;5050766;28;20170;-84
2023/02/23 09:33:47;;;;;;;3.53;2.00;;;18.50;38.10;;;;;;5052369;28;20612;-84
2023/02/23 09:36:20;;;;;;;6.15;2.08;;;18.60;38.10;;;;;;5036706;28;20170;-85
2023/02/23 09:38:54;;;;;;;5.38;2.00;;;18.50;38.30;;;;;;5052745;28;20543;-84
2023/02/23 09:41:42;;;;;;;5.57;2.17;;;18.50;38.50;;;;;;5111296;27;20168;-85
2023/02/23 09:44:20;;;;;;;4.13;2.00;;;18.60;38.40;;;;;;5146043;27;20233;-85
2023/02/23 09:47:12;;;;;;;6.25;2.13;;;18.60;38.30;;;;;;5094266;27;20223;-85
2023/02/23 09:49:38;;;;;;;3.30;1.90;;;18.60;38.30;;;;;;5126054;27;20164;-85
2023/02/23 09:52:04;;;;;;;4.80;2.00;;;18.60;38.60;;;;;;5091521;27;20156;-84
2023/02/23 09:54:32;;;;;;;8.05;2.28;;;18.60;38.40;;;;;;5125863;27;20211;-84
2023/02/23 09:56:59;;;;;;;4.63;1.90;;;18.60;38.90;;;;;;5108563;27;20163;-84
2023/02/23 09:59:28;;;;;;;2.30;1.77;;;18.70;38.70;;;;;;5107672;27;20167;-84
2023/02/23 10:02:12;;;;;;;1.80;1.52;;;18.60;38.60;;;;;;5142266;27;20163;-85
2023/02/23 10:04:43;;;;;;;3.65;1.65;;;18.70;38.60;;;;;;5090794;28;20211;-84
2023/02/23 10:07:19;;;;;;;3.72;1.85;;;18.60;38.80;;;;;;5067370;28;20185;-85
2023/02/23 10:09:59;;;;;;;2.88;1.98;;;18.70;38.90;;;;;;5066245;28;20623;-86
2023/02/23 10:12:48;;;;;;;3.00;2.15;;;18.70;39.00;;;;;;5045289;28;20202;-85
2023/02/23 10:15:34;;;;;;;2.58;1.80;;;18.70;38.70;;;;;;5069540;28;20205;-85
2023/02/23 10:18:42;;;;;;;5.07;2.30;;;18.70;38.90;;;;;;5046895;28;20258;-85
2023/02/23 10:21:15;;;;;;;3.83;1.98;;;18.70;38.80;;;;;;5064696;28;20594;-85
2023/02/23 10:23:45;;;;;;;1.88;1.52;;;18.70;38.80;;;;;;5045372;28;20173;-85
2023/02/23 10:26:20;;;;;;;1.95;1.60;;;18.80;39.00;;;;;;5031368;28;20215;-85
2023/02/23 10:28:46;;;;;;;1.77;1.40;;;18.80;38.90;;;;;;5046071;28;20169;-84
2023/02/23 10:31:33;;;;;;;2.08;1.73;;;18.80;38.80;;;;;;5045753;28;20261;-85
2023/02/23 10:34:02;;;;;;;2.47;1.55;;;18.90;38.90;;;;;;5045901;28;20256;-85
2023/02/23 10:36:38;;;;;;;5.43;1.63;;;18.80;38.80;;;;;;5065051;28;20180;-85
2023/02/23 10:39:06;;;;;;;3.08;1.73;;;18.90;39.00;;;;;;5085091;28;20187;-85
2023/02/23 10:41:34;;;;;;;3.60;1.50;;;18.80;38.90;;;;;;5085747;28;20191;-85
2023/02/23 10:44:00;;;;;;;3.15;1.80;;;18.80;39.10;;;;;;5095958;28;20693;-85
2023/02/23 10:46:38;;;;;;;4.05;1.80;;;18.80;39.10;;;;;;5100035;28;20306;-84
2023/02/23 10:49:05;;;;;;;1.70;1.60;;;18.70;39.40;;;;;;5100498;28;20475;-84
2023/02/23 10:51:33;;;;;;;1.83;1.45;;;18.80;39.40;;;;;;5096156;28;20161;-85
2023/02/23 10:54:11;;;;;;;3.58;1.80;;;18.80;39.20;;;;;;5117282;28;20160;-85
2023/02/23 10:56:43;;;;;;;2.38;1.73;;;18.80;39.30;;;;;;5115495;28;20663;-84
2023/02/23 10:59:17;;;;;;;2.75;1.80;;;18.70;39.30;;;;;;5102022;28;20164;-85
2023/02/23 11:01:44;;;;;;;2.78;1.50;;;18.70;39.90;;;;;;5100417;28;20160;-85
2023/02/23 11:04:24;;;;;;;2.28;1.52;;;18.80;39.70;;;;;;5100415;28;20217;-84
2023/02/23 11:06:51;;;;;;;3.55;1.50;;;18.70;39.70;;;;;;5134992;27;20172;-84
2023/02/23 11:09:29;;;;;;;3.65;1.50;;;18.70;39.70;;;;;;5098903;28;20188;-85
2023/02/23 11:11:57;;;;;;;4.97;1.50;;;18.60;39.60;;;;;;5103727;28;20167;-85
2023/02/23 11:14:23;;;;;;;2.00;1.77;;;18.70;39.60;;;;;;5100020;28;20235;-84
2023/02/23 11:16:49;;;;;;;3.42;1.80;;;18.70;39.60;;;;;;5060321;28;20221;-84
2023/02/23 11:19:22;;;;;;;3.10;1.40;;;18.60;39.50;;;;;;5076669;28;20175;-84
2023/02/23 11:21:50;;;;;;;2.65;1.75;;;18.70;39.70;;;;;;5045616;28;20576;-84
2023/02/23 11:24:21;;;;;;;1.83;1.60;;;18.70;39.60;;;;;;5061161;28;20202;-83
2023/02/23 11:26:48;;;;;;;3.50;1.42;;;18.70;39.70;;;;;;5061115;28;20180;-84
2023/02/23 11:29:34;;;;;;;1.67;1.40;;;18.70;39.70;;;;;;5060415;28;20164;-85
2023/02/23 11:32:04;;;;;;;1.83;1.50;;;18.70;39.80;;;;;;5046640;28;20213;-84
2023/02/23 11:34:43;;;;;;;2.13;1.40;;;18.70;39.70;;;;;;5063923;28;20565;-83
2023/02/23 11:37:22;;;;;;;3.13;1.40;;;18.80;39.60;;;;;;5062229;28;20229;-86
2023/02/23 11:39:54;;;;;;;3.63;1.40;;;18.70;39.60;;;;;;5094590;28;20567;-84
2023/02/23 11:42:24;;;;;;;2.67;1.60;;;18.70;39.60;;;;;;5096121;28;20192;-83
2023/02/23 11:44:51;;;;;;;2.58;1.42;;;18.70;39.50;;;;;;5133834;28;20554;-84
2023/02/23 11:47:38;;;;;;;2.45;1.40;;;18.70;39.60;;;;;;5136723;27;20163;-84
2023/02/23 11:50:47;;;;;;;1.75;1.38;;;18.60;39.60;;;;;;5137350;27;20170;-85
2023/02/23 11:53:45;;;;;;;1.77;1.40;;;18.60;39.80;;;;;;5097460;28;20176;-85
2023/02/23 11:56:11;;;;;;;1.83;1.20;;;18.60;39.70;;;;;;5056421;28;20185;-85
2023/02/23 11:58:44;;;;;;;2.38;1.48;;;18.60;39.70;;;;;;5081557;28;20682;-84
2023/02/23 12:01:12;;;;;;;3.55;1.40;;;18.60;39.80;;;;;;5115938;28;20183;-85
2023/02/23 12:03:46;;;;;;;1.80;1.30;;;18.60;39.80;;;;;;5082097;28;20172;-83
2023/02/23 12:06:17;;;;;;;1.48;1.20;;;18.70;39.80;;;;;;5097981;28;20181;-86
2023/02/23 12:08:44;;;;;;;2.05;1.50;;;18.60;39.80;;;;;;5083054;28;20183;-86
2023/02/23 12:11:14;;;;;;;5.95;1.50;;;18.60;39.80;;;;;;5102365;28;20153;-85
2023/02/23 12:13:44;;;;;;;6.88;1.52;;;18.60;39.80;;;;;;5118942;28;20703;-84
2023/02/23 12:16:19;;;;;;;6.07;1.60;;;18.60;39.90;;;;;;5102377;28;20210;-86
2023/02/23 12:22:34;;;;;;;7.32;1.70;;;18.60;39.90;;;;;;5080948;28;20227;-85
2023/02/23 12:25:04;;;;;;;6.25;1.67;;;18.60;39.90;;;;;;5048141;28;20201;-85
2023/02/23 12:27:45;;;;;;;6.80;1.50;;;18.60;39.90;;;;;;5061682;28;20150;-85
2023/02/23 12:30:38;;;;;;;5.70;1.55;;;18.70;39.90;;;;;;5045873;28;20351;-85
2023/02/23 12:33:17;;;;;;;4.03;1.50;;;18.70;39.90;;;;;;5060320;28;20639;-84
2023/02/23 12:36:06;;;;;;;3.83;1.40;;;18.70;39.90;;;;;;5048422;28;20184;-85
2023/02/23 12:38:48;;;;;;;3.17;1.55;;;18.70;39.80;;;;;;5081002;28;20611;-83
2023/02/23 12:41:40;;;;;;;3.40;1.40;;;18.70;39.80;;;;;;5080916;28;20665;-86
2023/02/23 12:44:42;;;;;;;3.03;1.58;;;18.70;40.00;;;;;;5056842;28;20242;-85
2023/02/23 12:47:31;;;;;;;2.33;1.20;;;18.70;40.00;;;;;;5077113;28;20180;-84
2023/02/23 12:50:12;;;;;;;4.75;1.70;;;18.80;40.10;;;;;;5061381;28;20181;-84
2023/02/23 12:52:45;;;;;;;3.95;1.67;;;18.70;40.10;;;;;;5072490;28;20180;-84
2023/02/23 12:55:12;;;;;;;2.70;1.30;;;18.70;40.00;;;;;;5063028;28;20732;-83
2023/02/23 12:57:55;;;;;;;4.88;1.55;;;18.80;40.00;;;;;;5081069;28;20220;-85
2023/02/23 13:00:41;;;;;;;2.22;1.25;;;18.80;40.00;;;;;;5065597;28;20177;-85
2023/02/23 13:03:39;;;;;;;3.13;1.50;;;18.70;40.20;;;;;;5093380;28;20176;-84
2023/02/23 13:06:10;;;;;;;4.30;1.33;;;18.70;40.30;;;;;;5059151;28;20181;-84
2023/02/23 13:09:06;;;;;;;3.75;1.38;;;18.70;40.30;;;;;;5094551;28;20183;-84
2023/02/23 13:11:51;;;;;;;3.67;1.30;;;18.70;40.30;;;;;;5083304;28;20223;-83
2023/02/23 13:14:34;;;;;;;2.63;1.35;;;18.80;40.30;;;;;;5082008;28;20215;-84
2023/02/23 13:17:08;;;;;;;3.28;1.30;;;18.70;40.40;;;;;;5116961;27;20497;-84
2023/02/23 13:19:53;;;;;;;2.33;1.38;;;18.80;40.30;;;;;;5098076;28;20609;-83
2023/02/23 13:22:27;;;;;;;7.82;1.70;;;18.80;40.40;;;;;;5099522;28;20156;-82
2023/02/23 13:24:54;;;;;;;4.35;1.35;;;18.80;40.50;;;;;;5099301;28;20198;-83
2023/02/23 13:27:33;;;;;;;2.72;1.25;;;18.80;40.60;;;;;;5099081;28;20579;-83
2023/02/23 13:30:02;;;;;;;1.30;1.20;;;18.80;40.50;;;;;;5116594;27;20152;-84
2023/02/23 13:32:31;;;;;;;2.28;1.20;;;18.80;40.50;;;;;;5101739;28;20155;-83
2023/02/23 13:34:59;;;;;;;1.95;1.20;;;18.80;40.40;;;;;;5101646;28;20163;-84
2023/02/23 13:37:33;;;;;;;3.25;1.30;;;18.90;40.40;;;;;;5087155;28;20638;-83
2023/02/23 13:40:45;;;;;;;;;;;;;;;;;;;;;
2023/02/23 13:43:17;;;;;;;1.63;1.42;;;18.80;40.50;;;;;;5068282;28;20225;-83
2023/02/23 13:46:01;;;;;;;1.73;1.35;;;18.80;40.50;;;;;;5041913;28;20232;-83
2023/02/23 13:48:34;;;;;;;2.63;1.55;;;18.80;40.70;;;;;;5060841;28;20221;-82
2023/02/23 13:51:20;;;;;;;4.82;1.30;;;18.80;40.70;;;;;;4998894;28;20241;-83
2023/02/23 13:54:21;;;;;;;4.22;1.35;;;18.80;40.80;;;;;;5015482;28;20168;-83
2023/02/23 13:56:53;;;;;;;6.03;1.20;;;18.80;40.90;;;;;;5001628;28;20241;-82
2023/02/23 13:59:23;;;;;;;4.80;1.60;;;18.80;40.90;;;;;;5004674;28;20156;-82
2023/02/23 14:01:51;;;;;;;5.20;1.17;;;18.80;41.20;;;;;;5016420;28;20546;-84
2023/02/23 14:04:25;;;;;;;10.02;1.40;;;18.80;41.20;;;;;;4999231;28;20265;-84
2023/02/23 14:07:15;;;;;;;6.88;1.65;;;18.80;41.20;;;;;;5016505;28;20179;-84
2023/02/23 14:09:49;;;;;;;3.53;1.50;;;18.80;41.40;;;;;;5001636;28;20160;-84
2023/02/23 14:12:18;;;;;;;5.20;1.80;;;18.80;41.40;;;;;;4999375;28;20207;-83
2023/02/23 14:14:45;;;;;;;9.68;1.60;;;18.80;41.50;;;;;;5037211;28;20295;-84
2023/02/23 14:17:38;;;;;;;8.98;1.67;;;18.80;41.50;;;;;;5025587;28;20193;-83
2023/02/23 14:20:14;;;;;;;8.38;1.77;;;18.80;41.50;;;;;;5023308;28;20178;-80
2023/02/23 14:23:11;;;;;;;4.97;1.65;;;18.80;41.40;;;;;;5070024;28;20621;-83
2023/02/23 14:26:11;;;;;;;7.85;1.63;;;18.80;41.50;;;;;;5099358;28;20191;-81
2023/02/23 14:28:38;;;;;;;7.45;1.63;;;18.80;41.60;;;;;;5088797;28;20168;-81
2023/02/23 14:31:19;;;;;;;8.48;1.60;;;18.80;41.70;;;;;;5082474;28;20160;-83
2023/02/23 14:33:51;;;;;;;9.95;1.80;;;18.80;41.90;;;;;;5099636;28;20172;-83
2023/02/23 14:36:32;;;;;;;10.02;2.00;;;18.80;41.90;;;;;;5101393;28;20141;-81
2023/02/23 14:39:00;;;;;;;4.60;1.55;;;18.80;42.00;;;;;;5081093;28;20254;-82
2023/02/23 14:41:26;;;;;;;9.50;1.70;;;18.80;41.90;;;;;;5080284;28;20159;-82